Time;durP1;ratioP1;P1;durP2;ratioP2;P2;SDS_P1;SDS_P2;PMS_P1;PMS_P2;Temp;Humidity;BMP_temperature;BMP_pressure;BME280_temperature;BME280_humidity;BME280_pressure;Samples;Min_cycle;Max_cycle;Signal;HPM_P1;HPM_P2
2021/06/30 00:01:43;;;;;;;;;8.25;8.25;;;;;;;;5055591;28;8946;-86
2021/06/30 00:04:10;;;;;;;;;11.50;8.75;;;;;;;;5057792;28;8905;-84
2021/06/30 00:06:37;;;;;;;;;7.75;7.00;;;;;;;;5053757;28;8872;-88
2021/06/30 00:09:05;;;;;;;;;11.75;11.25;;;;;;;;5054176;28;8894;-88
2021/06/30 00:11:33;;;;;;;;;6.50;6.50;;;;;;;;5054159;28;9005;-87
2021/06/30 00:14:00;;;;;;;;;7.50;6.75;;;;;;;;5053722;28;8863;-88
2021/06/30 00:16:31;;;;;;;;;9.25;7.75;;;;;;;;5052574;28;8974;-87
2021/06/30 00:19:00;;;;;;;;;6.00;6.00;;;;;;;;5055818;28;8960;-87
2021/06/30 00:21:28;;;;;;;;;8.25;8.25;;;;;;;;5056819;28;8876;-90
2021/06/30 00:23:56;;;;;;;;;8.00;8.00;;;;;;;;5053849;28;8873;-86
2021/06/30 00:26:23;;;;;;;;;9.75;9.00;;;;;;;;5054108;28;8863;-84
2021/06/30 00:28:50;;;;;;;;;11.50;6.75;;;;;;;;5049589;28;8859;-89
2021/06/30 00:31:18;;;;;;;;;8.00;8.00;;;;;;;;5059317;28;8812;-89
2021/06/30 00:33:46;;;;;;;;;12.50;10.75;;;;;;;;5054781;28;9085;-89
2021/06/30 00:36:14;;;;;;;;;7.25;7.25;;;;;;;;5054857;28;8883;-90
2021/06/30 00:38:42;;;;;;;;;10.75;8.75;;;;;;;;5056605;28;8876;-86
2021/06/30 00:41:09;;;;;;;;;10.25;10.25;;;;;;;;5057982;28;8855;-89
2021/06/30 00:43:37;;;;;;;;;9.50;7.00;;;;;;;;5056777;28;8990;-89
2021/06/30 00:46:04;;;;;;;;;8.00;8.00;;;;;;;;5054481;28;8894;-89
2021/06/30 00:48:31;;;;;;;;;10.00;10.00;;;;;;;;5062111;28;8959;-88
2021/06/30 00:50:58;;;;;;;;;10.50;10.50;;;;;;;;5058673;28;8995;-89
2021/06/30 00:53:27;;;;;;;;;10.25;9.75;;;;;;;;5055254;28;8862;-91
2021/06/30 00:55:55;;;;;;;;;15.75;13.25;;;;;;;;5058170;28;8864;-89
2021/06/30 00:58:22;;;;;;;;;14.00;11.50;;;;;;;;5056678;28;8930;-89
2021/06/30 01:00:50;;;;;;;;;12.00;11.75;;;;;;;;5058080;28;8814;-87
2021/06/30 01:03:17;;;;;;;;;11.75;7.75;;;;;;;;5060434;28;8871;-89
2021/06/30 01:05:44;;;;;;;;;11.50;11.50;;;;;;;;5057715;28;8871;-90
2021/06/30 01:08:12;;;;;;;;;15.00;11.75;;;;;;;;5057626;28;8963;-90
2021/06/30 01:10:40;;;;;;;;;12.00;10.75;;;;;;;;5060586;28;8864;-90
2021/06/30 01:13:08;;;;;;;;;7.00;7.00;;;;;;;;5060044;28;8872;-87
2021/06/30 01:15:47;;;;;;;;;13.75;12.00;;;;;;;;5064745;28;8957;-88
2021/06/30 01:18:14;;;;;;;;;9.50;9.50;;;;;;;;5051965;28;8960;-87
2021/06/30 01:20:42;;;;;;;;;9.50;9.50;;;;;;;;5057949;28;8887;-88
2021/06/30 01:23:11;;;;;;;;;7.00;7.00;;;;;;;;5073153;28;8856;-87
2021/06/30 01:25:38;;;;;;;;;11.00;9.75;;;;;;;;5052664;28;8866;-89
2021/06/30 01:28:06;;;;;;;;;7.00;7.00;;;;;;;;5071612;28;8856;-89
2021/06/30 01:30:33;;;;;;;;;9.00;7.00;;;;;;;;5061969;28;8809;-87
2021/06/30 01:33:01;;;;;;;;;7.00;7.00;;;;;;;;5063096;28;8877;-90
2021/06/30 01:35:28;;;;;;;;;6.75;6.00;;;;;;;;5057411;28;8852;-87
2021/06/30 01:37:56;;;;;;;;;9.50;9.50;;;;;;;;5058901;28;8933;-88
2021/06/30 01:40:25;;;;;;;;;9.50;6.25;;;;;;;;5061140;28;8963;-87
2021/06/30 01:42:55;;;;;;;;;11.50;9.75;;;;;;;;5061465;28;8841;-87
2021/06/30 01:45:23;;;;;;;;;14.75;8.75;;;;;;;;5059831;28;8848;-89
2021/06/30 01:47:50;;;;;;;;;11.75;11.00;;;;;;;;5061855;28;8970;-88
2021/06/30 01:50:18;;;;;;;;;12.00;12.00;;;;;;;;5057600;28;8991;-88
2021/06/30 01:52:46;;;;;;;;;14.25;14.00;;;;;;;;5063344;28;8991;-89
2021/06/30 01:55:15;;;;;;;;;9.50;9.50;;;;;;;;5058953;28;8864;-88
2021/06/30 01:57:46;;;;;;;;;17.75;17.75;;;;;;;;5049774;28;8855;-87
2021/06/30 02:00:15;;;;;;;;;18.50;15.00;;;;;;;;5056163;28;8886;-86
2021/06/30 02:02:46;;;;;;;;;16.00;14.25;;;;;;;;5052120;28;8852;-87
2021/06/30 02:05:15;;;;;;;;;16.00;15.50;;;;;;;;5056092;28;8895;-86
2021/06/30 02:07:45;;;;;;;;;17.25;15.75;;;;;;;;5060889;28;8854;-87
2021/06/30 02:10:13;;;;;;;;;18.00;16.00;;;;;;;;5067023;28;8990;-88
2021/06/30 02:12:41;;;;;;;;;22.25;21.25;;;;;;;;5053940;28;8876;-88
2021/06/30 02:15:13;;;;;;;;;22.00;20.50;;;;;;;;5059716;28;8873;-89
2021/06/30 02:17:40;;;;;;;;;23.75;22.25;;;;;;;;5059984;28;8867;-87
2021/06/30 02:20:10;;;;;;;;;25.00;23.50;;;;;;;;5060452;28;8894;-85
2021/06/30 02:22:39;;;;;;;;;29.00;27.33;;;;;;;;5056000;28;8888;-89
2021/06/30 02:25:08;;;;;;;;;29.00;26.33;;;;;;;;5054484;28;8946;-88
2021/06/30 02:27:36;;;;;;;;;28.67;26.67;;;;;;;;5060141;28;8954;-87
2021/06/30 02:30:06;;;;;;;;;29.67;29.67;;;;;;;;5066338;28;8962;-85
2021/06/30 02:32:35;;;;;;;;;30.00;27.25;;;;;;;;5060483;28;8945;-87
2021/06/30 02:35:03;;;;;;;;;31.33;26.67;;;;;;;;5051684;28;8856;-88
2021/06/30 02:37:30;;;;;;;;;30.33;25.33;;;;;;;;5058905;28;9541;-88
2021/06/30 02:39:57;;;;;;;;;32.67;24.00;;;;;;;;5057037;28;10239;-88
2021/06/30 02:42:25;;;;;;;;;25.75;22.25;;;;;;;;5064842;28;8948;-88
2021/06/30 02:44:52;;;;;;;;;21.00;19.25;;;;;;;;5056190;28;8852;-87
2021/06/30 02:47:20;;;;;;;;;22.50;22.50;;;;;;;;5057377;28;8974;-87
2021/06/30 02:49:48;;;;;;;;;18.50;16.00;;;;;;;;5058478;28;8837;-88
2021/06/30 02:52:16;;;;;;;;;23.75;21.50;;;;;;;;5055498;28;8914;-89
2021/06/30 02:54:43;;;;;;;;;15.25;13.75;;;;;;;;5075518;28;8883;-86
2021/06/30 02:57:11;;;;;;;;;14.25;13.25;;;;;;;;5051501;28;8872;-81
2021/06/30 02:59:38;;;;;;;;;16.50;14.75;;;;;;;;5058937;28;8886;-84
2021/06/30 03:02:05;;;;;;;;;12.00;12.00;;;;;;;;5051945;28;8886;-88
2021/06/30 03:04:33;;;;;;;;;17.50;17.50;;;;;;;;5056264;28;8964;-88
2021/06/30 03:07:01;;;;;;;;;14.50;14.50;;;;;;;;5056291;28;9003;-85
2021/06/30 03:09:29;;;;;;;;;16.75;15.50;;;;;;;;5054496;28;8880;-92
2021/06/30 03:11:56;;;;;;;;;12.00;8.75;;;;;;;;5056601;28;8839;-89
2021/06/30 03:14:23;;;;;;;;;14.25;13.00;;;;;;;;5055714;28;8886;-90
2021/06/30 03:16:50;;;;;;;;;13.50;12.00;;;;;;;;5052801;28;8862;-88
2021/06/30 03:19:18;;;;;;;;;17.25;15.00;;;;;;;;5053779;28;8863;-87
2021/06/30 03:21:45;;;;;;;;;11.25;10.75;;;;;;;;5060967;28;8854;-87
2021/06/30 03:24:14;;;;;;;;;10.75;9.75;;;;;;;;5057586;28;8901;-88
2021/06/30 03:26:41;;;;;;;;;12.00;11.50;;;;;;;;5051274;28;8862;-91
2021/06/30 03:29:08;;;;;;;;;9.25;9.25;;;;;;;;5053093;28;8878;-90
2021/06/30 03:31:36;;;;;;;;;8.00;6.50;;;;;;;;5040316;28;8846;-89
2021/06/30 03:34:04;;;;;;;;;7.25;5.75;;;;;;;;5035356;28;8863;-89
2021/06/30 03:36:31;;;;;;;;;9.25;8.75;;;;;;;;5029207;28;8984;-89
2021/06/30 03:38:58;;;;;;;;;5.75;5.25;;;;;;;;5029525;28;8870;-90
2021/06/30 03:41:27;;;;;;;;;7.25;7.25;;;;;;;;5035811;28;8941;-91
2021/06/30 03:43:54;;;;;;;;;4.50;4.50;;;;;;;;5034289;28;8859;-89
2021/06/30 03:46:21;;;;;;;;;4.00;4.00;;;;;;;;5031369;28;8858;-89
2021/06/30 03:48:48;;;;;;;;;9.75;5.25;;;;;;;;5031697;28;8889;-89
2021/06/30 03:51:16;;;;;;;;;8.25;5.75;;;;;;;;5033906;28;8866;-89
2021/06/30 03:53:43;;;;;;;;;4.75;4.75;;;;;;;;5038042;28;8991;-86
2021/06/30 03:56:10;;;;;;;;;6.50;4.50;;;;;;;;5033057;28;8850;-89
2021/06/30 03:58:39;;;;;;;;;4.00;4.00;;;;;;;;5031861;28;8915;-87
2021/06/30 04:01:06;;;;;;;;;5.00;5.00;;;;;;;;5038251;28;8837;-90
2021/06/30 04:03:34;;;;;;;;;4.75;4.75;;;;;;;;5049872;28;8879;-89
2021/06/30 04:06:01;;;;;;;;;4.00;4.00;;;;;;;;5053962;28;8891;-92
2021/06/30 04:08:28;;;;;;;;;3.75;3.75;;;;;;;;5052716;28;8869;-89
2021/06/30 04:10:56;;;;;;;;;4.75;4.00;;;;;;;;5059501;28;8977;-91
2021/06/30 04:13:23;;;;;;;;;4.25;4.25;;;;;;;;5052331;28;8858;-90
2021/06/30 04:15:52;;;;;;;;;6.00;4.75;;;;;;;;5055371;28;8975;-88
2021/06/30 04:18:19;;;;;;;;;4.00;4.00;;;;;;;;5062192;28;8886;-90
2021/06/30 04:20:47;;;;;;;;;3.00;3.00;;;;;;;;5068585;28;8851;-89
2021/06/30 04:23:15;;;;;;;;;5.00;4.50;;;;;;;;5065009;28;9011;-91
2021/06/30 04:25:42;;;;;;;;;3.00;3.00;;;;;;;;5060813;28;8877;-86
2021/06/30 04:28:09;;;;;;;;;2.75;2.75;;;;;;;;5051809;28;8991;-89
2021/06/30 04:30:37;;;;;;;;;4.00;4.00;;;;;;;;5059734;28;8805;-89
2021/06/30 04:33:05;;;;;;;;;5.25;4.75;;;;;;;;5057936;28;8848;-91
2021/06/30 04:35:33;;;;;;;;;5.50;5.50;;;;;;;;5066383;28;8880;-94
2021/06/30 04:38:01;;;;;;;;;6.50;5.50;;;;;;;;5058911;28;9594;-95
2021/06/30 04:40:29;;;;;;;;;5.00;5.00;;;;;;;;5056142;28;8894;-94
2021/06/30 04:42:56;;;;;;;;;4.50;4.50;;;;;;;;5064579;28;8832;-93
2021/06/30 04:45:23;;;;;;;;;6.00;6.00;;;;;;;;5056165;28;8853;-93
2021/06/30 04:47:51;;;;;;;;;7.25;5.75;;;;;;;;5066881;28;8971;-93
2021/06/30 04:50:20;;;;;;;;;5.75;4.50;;;;;;;;5061511;28;8976;-94
2021/06/30 04:52:47;;;;;;;;;4.75;4.75;;;;;;;;5060634;28;8890;-90
2021/06/30 04:55:14;;;;;;;;;6.00;6.00;;;;;;;;5067474;28;8844;-94
2021/06/30 04:57:42;;;;;;;;;5.00;5.00;;;;;;;;5060100;28;8953;-92
2021/06/30 05:00:11;;;;;;;;;4.25;4.25;;;;;;;;5068471;28;8848;-90
2021/06/30 05:02:38;;;;;;;;;6.00;6.00;;;;;;;;5068180;28;8978;-93
2021/06/30 05:05:06;;;;;;;;;4.75;4.75;;;;;;;;5061899;28;9781;-93
2021/06/30 05:07:35;;;;;;;;;5.75;5.75;;;;;;;;5066885;28;8876;-93
2021/06/30 05:10:02;;;;;;;;;4.25;4.25;;;;;;;;5068429;28;8864;-88
2021/06/30 05:12:29;;;;;;;;;5.00;4.00;;;;;;;;5067526;28;8994;-90
2021/06/30 05:14:57;;;;;;;;;3.50;3.50;;;;;;;;5067556;28;8941;-92
2021/06/30 05:17:24;;;;;;;;;5.75;5.75;;;;;;;;5057953;28;9652;-90
2021/06/30 05:19:52;;;;;;;;;6.00;6.00;;;;;;;;5065843;28;8899;-93
2021/06/30 05:22:19;;;;;;;;;5.00;5.00;;;;;;;;5069963;28;8856;-92
2021/06/30 05:24:48;;;;;;;;;8.00;4.50;;;;;;;;5055509;28;8879;-93
2021/06/30 05:27:15;;;;;;;;;4.00;4.00;;;;;;;;5067400;28;8882;-91
2021/06/30 05:29:42;;;;;;;;;4.75;3.75;;;;;;;;5067862;28;8876;-96
2021/06/30 05:32:10;;;;;;;;;5.00;5.00;;;;;;;;5065702;28;8911;-89
2021/06/30 05:34:37;;;;;;;;;5.25;5.25;;;;;;;;5061598;28;8867;-88
2021/06/30 05:37:05;;;;;;;;;7.25;5.25;;;;;;;;5062402;28;8872;-90
2021/06/30 05:39:32;;;;;;;;;5.00;5.00;;;;;;;;5065813;28;8864;-87
2021/06/30 05:42:01;;;;;;;;;5.00;5.00;;;;;;;;5062556;28;8872;-88
2021/06/30 05:44:28;;;;;;;;;6.50;4.25;;;;;;;;5065909;28;9307;-88
2021/06/30 05:46:56;;;;;;;;;5.50;5.00;;;;;;;;5065986;28;8886;-86
2021/06/30 05:49:23;;;;;;;;;6.50;5.00;;;;;;;;5068390;28;8899;-86
2021/06/30 05:51:50;;;;;;;;;5.00;5.00;;;;;;;;5065049;28;8893;-83
2021/06/30 05:54:17;;;;;;;;;6.00;6.00;;;;;;;;5067964;28;8906;-85
2021/06/30 05:56:45;;;;;;;;;7.00;7.00;;;;;;;;5059879;28;8931;-85
2021/06/30 05:59:14;;;;;;;;;8.25;8.25;;;;;;;;5055265;28;8958;-85
2021/06/30 06:01:43;;;;;;;;;8.00;5.75;;;;;;;;5054400;28;8853;-84
2021/06/30 06:04:11;;;;;;;;;7.75;7.75;;;;;;;;5062617;28;9019;-85
2021/06/30 06:06:38;;;;;;;;;8.75;8.75;;;;;;;;5066831;28;8888;-86
2021/06/30 06:09:06;;;;;;;;;7.25;7.25;;;;;;;;5066068;28;8978;-84
2021/06/30 06:11:33;;;;;;;;;4.50;4.50;;;;;;;;5066118;28;8860;-86
2021/06/30 06:14:01;;;;;;;;;8.25;8.25;;;;;;;;5065261;28;8975;-85
2021/06/30 06:16:31;;;;;;;;;6.00;6.00;;;;;;;;5066368;28;8882;-86
2021/06/30 06:18:59;;;;;;;;;9.00;9.00;;;;;;;;5066859;28;8876;-85
2021/06/30 06:21:26;;;;;;;;;8.25;8.25;;;;;;;;5065317;28;8880;-85
2021/06/30 06:23:53;;;;;;;;;9.25;8.25;;;;;;;;5066616;28;8943;-85
2021/06/30 06:26:21;;;;;;;;;11.00;9.50;;;;;;;;5065125;28;8864;-86
2021/06/30 06:28:49;;;;;;;;;6.00;6.00;;;;;;;;5061166;28;8943;-86
2021/06/30 06:31:17;;;;;;;;;8.50;8.50;;;;;;;;5055584;28;8839;-83
2021/06/30 06:33:46;;;;;;;;;7.75;7.75;;;;;;;;5066626;28;8908;-84
2021/06/30 06:36:14;;;;;;;;;8.75;6.00;;;;;;;;5066169;28;8852;-86
2021/06/30 06:38:44;;;;;;;;;9.00;7.50;;;;;;;;5065711;28;9626;-86
2021/06/30 06:41:12;;;;;;;;;9.33;9.33;;;;;;;;5052887;28;8839;-87
2021/06/30 06:43:42;;;;;;;;;8.00;8.00;;;;;;;;5048516;28;8964;-82
2021/06/30 06:46:10;;;;;;;;;10.75;9.00;;;;;;;;5053369;28;8875;-87
2021/06/30 06:48:38;;;;;;;;;10.75;9.25;;;;;;;;5071250;28;8860;-85
2021/06/30 06:51:07;;;;;;;;;9.75;9.75;;;;;;;;5069566;28;8869;-96
2021/06/30 06:53:34;;;;;;;;;10.25;10.00;;;;;;;;5066986;28;8913;-93
2021/06/30 06:56:08;;;;;;;;;9.50;9.25;;;;;;;;5068475;28;8874;-92
2021/06/30 06:58:35;;;;;;;;;9.00;9.00;;;;;;;;5066158;28;8877;-96
2021/06/30 07:01:02;;;;;;;;;9.25;9.00;;;;;;;;5065560;28;8800;-96
2021/06/30 07:03:30;;;;;;;;;10.00;9.00;;;;;;;;5059832;28;8840;-91
2021/06/30 07:05:57;;;;;;;;;11.50;10.00;;;;;;;;5052948;28;8879;-93
2021/06/30 07:08:26;;;;;;;;;12.50;11.00;;;;;;;;5059466;28;8876;-92
2021/06/30 07:10:53;;;;;;;;;10.00;9.00;;;;;;;;5065529;28;8852;-93
2021/06/30 07:13:20;;;;;;;;;12.25;12.25;;;;;;;;5081130;28;8876;-90
2021/06/30 07:15:48;;;;;;;;;9.75;9.75;;;;;;;;5066282;28;8978;-95
2021/06/30 07:18:16;;;;;;;;;9.75;9.75;;;;;;;;5064581;28;8923;-94
2021/06/30 07:20:43;;;;;;;;;6.25;6.25;;;;;;;;5065827;28;8845;-93
2021/06/30 07:23:10;;;;;;;;;7.00;6.00;;;;;;;;5063899;28;8876;-92
2021/06/30 07:25:40;;;;;;;;;10.75;9.00;;;;;;;;5064691;28;8864;-94
2021/06/30 07:28:08;;;;;;;;;7.25;7.25;;;;;;;;5051725;28;8888;-94
2021/06/30 07:30:36;;;;;;;;;9.75;8.75;;;;;;;;5064022;28;8789;-87
2021/06/30 07:33:04;;;;;;;;;11.25;11.25;;;;;;;;5057543;28;8864;-94
2021/06/30 07:35:31;;;;;;;;;8.25;8.25;;;;;;;;5058634;28;8882;-82
2021/06/30 07:37:59;;;;;;;;;6.75;6.75;;;;;;;;5055456;28;8864;-84
2021/06/30 07:40:26;;;;;;;;;10.75;8.00;;;;;;;;5054978;28;8950;-82
2021/06/30 07:42:56;;;;;;;;;11.50;10.25;;;;;;;;5055952;28;8892;-82
2021/06/30 07:45:23;;;;;;;;;11.25;10.75;;;;;;;;5055985;28;8921;-82
2021/06/30 07:47:51;;;;;;;;;8.25;8.25;;;;;;;;5053352;28;8869;-81
2021/06/30 07:50:18;;;;;;;;;5.50;5.50;;;;;;;;5057107;28;8862;-79
2021/06/30 07:52:48;;;;;;;;;11.00;8.00;;;;;;;;5052205;28;8905;-86
2021/06/30 07:55:15;;;;;;;;;10.50;8.00;;;;;;;;5056635;28;8863;-83
2021/06/30 07:57:43;;;;;;;;;6.25;6.25;;;;;;;;5052519;28;10345;-79
2021/06/30 08:00:13;;;;;;;;;10.00;7.50;;;;;;;;5051172;28;8890;-78
2021/06/30 08:02:41;;;;;;;;;8.00;8.00;;;;;;;;5052185;28;8879;-83
2021/06/30 08:05:09;;;;;;;;;6.25;6.25;;;;;;;;5055115;28;8871;-81
2021/06/30 08:07:37;;;;;;;;;10.75;7.75;;;;;;;;5054253;28;8845;-82
2021/06/30 08:10:08;;;;;;;;;7.25;6.75;;;;;;;;5049615;28;8989;-83
2021/06/30 08:12:35;;;;;;;;;6.50;6.25;;;;;;;;5061045;28;8824;-79
2021/06/30 08:15:02;;;;;;;;;9.50;8.00;;;;;;;;5049392;28;8860;-81
2021/06/30 08:17:31;;;;;;;;;9.00;9.00;;;;;;;;5065240;28;8892;-81
2021/06/30 08:19:58;;;;;;;;;10.50;8.00;;;;;;;;5050221;28;8870;-84
2021/06/30 08:22:26;;;;;;;;;5.25;5.25;;;;;;;;5054603;28;8857;-83
2021/06/30 08:24:53;;;;;;;;;10.00;10.00;;;;;;;;5060180;28;9222;-84
2021/06/30 08:27:21;;;;;;;;;7.25;7.25;;;;;;;;5062951;28;8864;-83
2021/06/30 08:29:49;;;;;;;;;8.50;6.75;;;;;;;;5062014;28;8872;-85
2021/06/30 08:32:16;;;;;;;;;7.00;7.00;;;;;;;;5045946;28;8868;-82
2021/06/30 08:34:45;;;;;;;;;8.50;8.50;;;;;;;;5064194;28;8852;-83
2021/06/30 08:37:12;;;;;;;;;9.00;9.00;;;;;;;;5050559;28;8888;-78
2021/06/30 08:39:40;;;;;;;;;6.50;6.50;;;;;;;;5055374;28;8994;-83
2021/06/30 08:42:07;;;;;;;;;10.50;7.00;;;;;;;;5052966;28;8886;-82
2021/06/30 08:44:35;;;;;;;;;9.50;8.25;;;;;;;;5057178;28;8844;-82
2021/06/30 08:47:04;;;;;;;;;10.50;10.00;;;;;;;;5049790;28;8839;-81
2021/06/30 08:49:31;;;;;;;;;11.50;8.50;;;;;;;;5056698;28;8935;-87
2021/06/30 08:52:00;;;;;;;;;10.75;10.75;;;;;;;;5058242;28;8836;-92
2021/06/30 08:54:29;;;;;;;;;12.25;8.00;;;;;;;;5058888;28;8855;-86
2021/06/30 08:56:56;;;;;;;;;10.00;8.00;;;;;;;;5059075;28;8944;-85
2021/06/30 08:59:24;;;;;;;;;10.00;8.25;;;;;;;;5051226;28;10370;-83
2021/06/30 09:01:52;;;;;;;;;8.50;7.00;;;;;;;;5055551;28;8816;-91
2021/06/30 09:04:19;;;;;;;;;10.75;10.75;;;;;;;;5055783;28;8886;-92
2021/06/30 09:06:46;;;;;;;;;12.00;9.25;;;;;;;;5057413;28;8896;-92
2021/06/30 09:09:16;;;;;;;;;8.75;8.75;;;;;;;;5060203;28;8963;-89
2021/06/30 09:11:53;;;;;;;;;9.50;8.00;;;;;;;;5073544;28;8872;-83
2021/06/30 09:14:26;;;;;;;;;10.00;10.00;;;;;;;;5062909;28;10153;-87
2021/06/30 09:19:47;;;;;;;;;10.00;10.00;;;;;;;;5049442;28;8945;-89
2021/06/30 09:22:15;;;;;;;;;7.75;5.75;;;;;;;;5055082;28;8864;-87
2021/06/30 09:24:45;;;;;;;;;9.00;9.00;;;;;;;;5056616;28;8887;-84
2021/06/30 09:27:14;;;;;;;;;8.25;8.25;;;;;;;;5057353;28;8999;-88
2021/06/30 09:29:42;;;;;;;;;8.00;8.00;;;;;;;;5055824;28;8879;-89
2021/06/30 09:32:11;;;;;;;;;11.00;10.25;;;;;;;;5059016;28;8903;-87
2021/06/30 09:34:39;;;;;;;;;11.25;11.25;;;;;;;;5055528;28;8870;-84
2021/06/30 09:37:07;;;;;;;;;16.33;11.00;;;;;;;;5054402;28;8910;-86
2021/06/30 09:39:37;;;;;;;;;8.75;8.75;;;;;;;;5052800;28;8836;-88
2021/06/30 09:42:08;;;;;;;;;12.50;10.50;;;;;;;;5056713;28;8855;-83
2021/06/30 09:44:36;;;;;;;;;9.00;9.00;;;;;;;;5059095;28;8875;-85
2021/06/30 09:47:04;;;;;;;;;10.75;10.75;;;;;;;;5059672;28;8902;-89
2021/06/30 09:49:32;;;;;;;;;6.25;6.25;;;;;;;;5054960;28;9602;-86
2021/06/30 09:52:10;;;;;;;;;10.25;10.25;;;;;;;;5053800;28;9201;-87
2021/06/30 09:54:39;;;;;;;;;11.50;11.25;;;;;;;;5050812;28;8868;-85
2021/06/30 09:57:10;;;;;;;;;12.00;10.00;;;;;;;;5035970;28;8880;-86
2021/06/30 09:59:38;;;;;;;;;13.00;10.75;;;;;;;;5054730;28;8856;-85
2021/06/30 10:02:08;;;;;;;;;11.75;10.75;;;;;;;;5054096;28;8967;-86
2021/06/30 10:04:37;;;;;;;;;7.50;7.00;;;;;;;;5056204;28;8964;-85
2021/06/30 10:07:08;;;;;;;;;7.75;7.75;;;;;;;;5058910;28;8868;-85
2021/06/30 10:09:36;;;;;;;;;9.00;9.00;;;;;;;;5055572;28;9852;-86
2021/06/30 10:12:08;;;;;;;;;13.25;11.75;;;;;;;;5051925;28;8877;-86
2021/06/30 10:14:37;;;;;;;;;10.00;10.00;;;;;;;;5051871;28;8964;-86
2021/06/30 10:17:04;;;;;;;;;9.40;8.60;;;;;;;;5054208;28;8881;-86
2021/06/30 10:19:32;;;;;;;;;9.50;9.50;;;;;;;;5057806;28;8875;-86
2021/06/30 10:22:00;;;;;;;;;12.50;9.25;;;;;;;;5058272;28;8887;-85
2021/06/30 10:24:27;;;;;;;;;9.75;9.75;;;;;;;;5054816;28;8873;-85
2021/06/30 10:26:55;;;;;;;;;10.75;9.00;;;;;;;;5051691;28;8878;-85
2021/06/30 10:29:29;;;;;;;;;10.25;10.25;;;;;;;;5053880;28;8894;-89
2021/06/30 10:31:59;;;;;;;;;7.25;7.25;;;;;;;;5057087;28;8830;-83
2021/06/30 10:34:36;;;;;;;;;10.50;10.50;;;;;;;;5045466;28;8878;-86
2021/06/30 10:37:05;;;;;;;;;11.00;9.00;;;;;;;;5058223;28;8862;-83
2021/06/30 10:39:47;;;;;;;;;10.50;10.50;;;;;;;;5066536;28;8899;-82
2021/06/30 10:42:23;;;;;;;;;10.00;8.50;;;;;;;;5050354;28;8878;-85
2021/06/30 10:44:55;;;;;;;;;10.25;10.25;;;;;;;;5055535;28;8884;-82
2021/06/30 10:47:39;;;;;;;;;12.25;9.25;;;;;;;;5050996;28;8870;-83
2021/06/30 10:50:27;;;;;;;;;9.00;9.00;;;;;;;;5053631;28;8919;-87
2021/06/30 10:52:55;;;;;;;;;12.25;10.50;;;;;;;;5063976;28;8860;-88
2021/06/30 10:55:47;;;;;;;;;10.00;10.00;;;;;;;;5064544;28;9728;-90
2021/06/30 10:58:20;;;;;;;;;12.25;10.25;;;;;;;;5057917;28;8829;-83
2021/06/30 11:00:51;;;;;;;;;10.00;10.00;;;;;;;;5055230;28;8771;-84
2021/06/30 11:03:27;;;;;;;;;12.25;10.00;;;;;;;;5060562;28;8856;-86
2021/06/30 11:05:55;;;;;;;;;14.50;12.75;;;;;;;;5053320;28;8851;-84
2021/06/30 11:08:44;;;;;;;;;12.25;10.00;;;;;;;;5052900;28;9668;-89
2021/06/30 11:11:12;;;;;;;;;7.00;7.00;;;;;;;;5058932;28;8922;-86
2021/06/30 11:14:01;;;;;;;;;11.25;11.25;;;;;;;;5051632;28;8875;-83
2021/06/30 11:16:53;;;;;;;;;9.00;9.00;;;;;;;;5049744;28;8883;-87
2021/06/30 11:19:43;;;;;;;;;11.75;11.25;;;;;;;;5054769;28;8965;-87
2021/06/30 11:22:29;;;;;;;;;11.75;11.75;;;;;;;;5054815;28;8857;-90
2021/06/30 11:24:58;;;;;;;;;12.25;12.25;;;;;;;;5050417;28;8851;-82
2021/06/30 11:27:40;;;;;;;;;10.00;8.75;;;;;;;;5051654;28;8867;-84
2021/06/30 11:30:10;;;;;;;;;10.25;9.00;;;;;;;;5054969;28;8864;-90
2021/06/30 11:32:53;;;;;;;;;11.25;11.00;;;;;;;;5047260;28;8855;-85
2021/06/30 11:35:27;;;;;;;;;9.75;9.75;;;;;;;;5056575;28;8880;-85
2021/06/30 11:38:04;;;;;;;;;45.25;38.00;;;;;;;;5059578;28;8868;-82
2021/06/30 11:40:35;;;;;;;;;13.50;13.25;;;;;;;;5063199;28;8852;-83
2021/06/30 11:43:10;;;;;;;;;9.75;9.75;;;;;;;;5061689;28;8876;-83
2021/06/30 11:45:37;;;;;;;;;10.75;10.75;;;;;;;;5054042;28;8871;-84
2021/06/30 11:48:10;;;;;;;;;9.25;8.75;;;;;;;;5049753;28;8858;-85
2021/06/30 11:50:49;;;;;;;;;8.00;8.00;;;;;;;;5055988;28;8979;-83
2021/06/30 11:53:17;;;;;;;;;11.00;9.75;;;;;;;;5058053;28;8940;-86
2021/06/30 11:55:45;;;;;;;;;10.50;9.50;;;;;;;;5054490;28;8861;-85
2021/06/30 11:58:12;;;;;;;;;10.25;8.75;;;;;;;;5048276;28;8892;-83
2021/06/30 12:00:44;;;;;;;;;12.00;11.00;;;;;;;;5051672;28;8892;-85
2021/06/30 12:03:19;;;;;;;;;9.80;9.80;;;;;;;;5057589;28;8874;-84
2021/06/30 12:05:47;;;;;;;;;12.25;11.00;;;;;;;;5054449;28;8898;-83
2021/06/30 12:08:14;;;;;;;;;10.00;8.75;;;;;;;;5061505;28;8864;-82
2021/06/30 12:10:42;;;;;;;;;10.80;9.00;;;;;;;;5054164;28;8877;-82
2021/06/30 12:13:11;;;;;;;;;9.00;9.00;;;;;;;;5054569;28;8882;-86
2021/06/30 12:15:43;;;;;;;;;10.40;8.80;;;;;;;;5055491;28;8857;-81
2021/06/30 12:18:12;;;;;;;;;7.40;7.00;;;;;;;;5058279;28;8868;-81
2021/06/30 12:20:40;;;;;;;;;11.20;10.80;;;;;;;;5059116;28;9622;-86
2021/06/30 12:23:07;;;;;;;;;10.40;9.00;;;;;;;;5052607;28;9028;-84
2021/06/30 12:25:35;;;;;;;;;8.50;8.50;;;;;;;;5058167;28;8905;-91
2021/06/30 12:28:05;;;;;;;;;10.50;10.50;;;;;;;;5052238;28;8865;-82
2021/06/30 12:30:34;;;;;;;;;10.00;10.00;;;;;;;;5048498;28;9514;-80
2021/06/30 12:33:03;;;;;;;;;8.00;6.50;;;;;;;;5052243;28;8855;-85
2021/06/30 12:35:34;;;;;;;;;11.50;10.50;;;;;;;;5052597;28;8873;-86
2021/06/30 12:38:04;;;;;;;;;10.25;10.25;;;;;;;;5054212;28;8867;-89
2021/06/30 12:40:32;;;;;;;;;10.25;9.50;;;;;;;;5061207;28;8840;-90
2021/06/30 12:43:05;;;;;;;;;11.40;10.00;;;;;;;;5057644;28;8864;-92
2021/06/30 12:45:38;;;;;;;;;9.20;9.20;;;;;;;;5053466;28;8890;-83
2021/06/30 12:48:07;;;;;;;;;5.80;5.80;;;;;;;;5063790;28;8874;-87
2021/06/30 12:50:38;;;;;;;;;8.60;7.80;;;;;;;;5057722;28;8901;-85
2021/06/30 12:53:09;;;;;;;;;7.80;6.00;;;;;;;;5055439;28;8879;-88
2021/06/30 12:55:53;;;;;;;;;5.00;5.00;;;;;;;;5055540;28;8936;-90
2021/06/30 12:58:23;;;;;;;;;6.00;6.00;;;;;;;;5047511;28;8872;-87
2021/06/30 13:01:01;;;;;;;;;7.50;7.50;;;;;;;;5052114;28;8819;-91
2021/06/30 13:03:29;;;;;;;;;10.00;10.00;;;;;;;;5055232;28;8880;-89
2021/06/30 13:06:12;;;;;;;;;5.50;5.25;;;;;;;;5068286;28;8868;-88
2021/06/30 13:08:40;;;;;;;;;9.50;7.50;;;;;;;;5058886;28;8875;-93
2021/06/30 13:11:14;;;;;;;;;6.75;6.75;;;;;;;;5053009;28;8985;-91
2021/06/30 13:13:58;;;;;;;;;6.25;6.25;;;;;;;;5060897;28;9601;-92
2021/06/30 13:16:27;;;;;;;;;8.00;8.00;;;;;;;;5064137;28;8983;-93
2021/06/30 13:18:56;;;;;;;;;9.75;9.25;;;;;;;;5063675;28;8894;-85
2021/06/30 13:21:27;;;;;;;;;7.75;7.75;;;;;;;;5054559;28;8973;-88
2021/06/30 13:23:58;;;;;;;;;9.50;9.50;;;;;;;;5058613;28;8987;-88
2021/06/30 13:26:47;;;;;;;;;10.33;10.33;;;;;;;;5053849;28;8984;-89
2021/06/30 13:35:27;;;;;;;;;8.75;8.75;;;;;;;;5061112;28;8825;-88
2021/06/30 13:37:58;;;;;;;;;8.75;8.75;;;;;;;;5061114;28;8856;-90
2021/06/30 13:40:27;;;;;;;;;9.50;8.50;;;;;;;;5060308;28;8864;-89
2021/06/30 13:42:57;;;;;;;;;5.00;3.25;;;;;;;;5059072;28;8882;-89
2021/06/30 13:45:25;;;;;;;;;8.50;8.50;;;;;;;;5066606;28;8996;-91
2021/06/30 13:47:52;;;;;;;;;8.25;6.75;;;;;;;;5071766;28;8967;-90
2021/06/30 13:50:20;;;;;;;;;8.50;6.75;;;;;;;;5067193;28;8828;-96
2021/06/30 13:52:47;;;;;;;;;8.67;8.00;;;;;;;;5057957;28;9642;-82
2021/06/30 13:55:17;;;;;;;;;5.50;5.50;;;;;;;;5072193;28;8999;-87
2021/06/30 13:57:44;;;;;;;;;10.00;8.75;;;;;;;;5071812;28;8848;-92
2021/06/30 14:00:12;;;;;;;;;8.00;8.00;;;;;;;;5067063;28;8848;-93
2021/06/30 14:02:39;;;;;;;;;9.25;9.00;;;;;;;;5074080;28;8936;-93
2021/06/30 14:05:07;;;;;;;;;7.00;7.00;;;;;;;;5068685;28;8934;-90
2021/06/30 14:07:35;;;;;;;;;10.00;10.00;;;;;;;;5072760;28;9003;-95
2021/06/30 14:10:03;;;;;;;;;8.75;8.75;;;;;;;;5070214;28;8860;-91
2021/06/30 14:12:32;;;;;;;;;7.75;6.25;;;;;;;;5066880;28;8965;-91
2021/06/30 14:14:59;;;;;;;;;9.75;8.75;;;;;;;;5057641;28;8999;-92
2021/06/30 14:17:27;;;;;;;;;9.00;9.00;;;;;;;;5067011;28;8852;-84
2021/06/30 14:19:54;;;;;;;;;7.25;7.25;;;;;;;;5069763;28;9001;-91
2021/06/30 14:22:24;;;;;;;;;9.00;9.00;;;;;;;;5066557;28;8872;-87
2021/06/30 14:24:52;;;;;;;;;10.00;9.50;;;;;;;;5060677;28;8906;-84
2021/06/30 14:27:22;;;;;;;;;9.75;9.75;;;;;;;;5054836;28;8884;-83
2021/06/30 14:29:53;;;;;;;;;7.50;7.50;;;;;;;;5049371;28;8871;-85
2021/06/30 14:32:21;;;;;;;;;10.50;10.50;;;;;;;;5067894;28;8825;-88
2021/06/30 14:34:49;;;;;;;;;8.25;6.75;;;;;;;;5062489;28;8876;-82
2021/06/30 14:37:17;;;;;;;;;7.75;7.75;;;;;;;;5065855;28;8888;-84
2021/06/30 14:39:44;;;;;;;;;7.50;7.50;;;;;;;;5054552;28;8899;-82
2021/06/30 14:42:11;;;;;;;;;5.25;5.25;;;;;;;;5062519;28;8859;-79
2021/06/30 14:44:39;;;;;;;;;8.00;6.50;;;;;;;;5062722;28;8849;-81
2021/06/30 14:47:08;;;;;;;;;8.50;7.00;;;;;;;;5064737;28;8860;-83
2021/06/30 14:49:36;;;;;;;;;5.00;5.00;;;;;;;;5065496;28;8876;-88
2021/06/30 14:52:04;;;;;;;;;8.50;7.00;;;;;;;;5064041;28;9474;-81
2021/06/30 14:54:32;;;;;;;;;9.75;9.50;;;;;;;;5057732;28;8882;-79
2021/06/30 14:57:00;;;;;;;;;6.00;6.00;;;;;;;;5068216;28;8891;-80
2021/06/30 14:59:27;;;;;;;;;8.50;7.75;;;;;;;;5069422;28;9545;-81
2021/06/30 15:01:55;;;;;;;;;6.75;6.75;;;;;;;;5057071;28;8832;-80
2021/06/30 15:04:23;;;;;;;;;5.75;4.50;;;;;;;;5063842;28;8876;-81
2021/06/30 15:06:50;;;;;;;;;5.75;5.75;;;;;;;;5061310;28;8989;-78